sensor_id;sensor_type;location;lat;lon;timestamp;temperature;humidity
27368;DHT22;14839;48.106;11.618;2023-03-01T05:00:50;0.10;94.60
27368;DHT22;14839;48.106;11.618;2023-03-01T05:03:16;0.10;94.60
27368;DHT22;14839;48.106;11.618;2023-03-01T05:05:46;0.00;94.60
27368;DHT22;14839;48.106;11.618;2023-03-01T05:08:12;0.00;94.60
27368;DHT22;14839;48.106;11.618;2023-03-01T05:10:52;0.00;94.60
27368;DHT22;14839;48.106;11.618;2023-03-01T05:13:19;-0.10;94.60
27368;DHT22;14839;48.106;11.618;2023-03-01T05:15:54;-0.10;94.60
27368;DHT22;14839;48.106;11.618;2023-03-01T05:18:19;-0.10;94.60
27368;DHT22;14839;48.106;11.618;2023-03-01T05:20:46;-0.10;94.60
27368;DHT22;14839;48.106;11.618;2023-03-01T05:23:12;-0.20;94.60
27368;DHT22;14839;48.106;11.618;2023-03-01T05:25:38;-0.30;94.60
27368;DHT22;14839;48.106;11.618;2023-03-01T05:28:06;-0.30;94.60
27368;DHT22;14839;48.106;11.618;2023-03-01T05:30:33;-0.30;94.60
27368;DHT22;14839;48.106;11.618;2023-03-01T05:32:59;-0.30;94.60
27368;DHT22;14839;48.106;11.618;2023-03-01T05:35:25;-0.30;94.60
27368;DHT22;14839;48.106;11.618;2023-03-01T05:37:51;-0.30;94.60
27368;DHT22;14839;48.106;11.618;2023-03-01T05:40:19;-0.30;94.60
27368;DHT22;14839;48.106;11.618;2023-03-01T05:42:47;-0.30;94.60
27368;DHT22;14839;48.106;11.618;2023-03-01T05:45:14;-0.40;94.60
27368;DHT22;14839;48.106;11.618;2023-03-01T05:47:41;-0.40;94.60
27368;DHT22;14839;48.106;11.618;2023-03-01T05:50:20;-0.40;94.60
27368;DHT22;14839;48.106;11.618;2023-03-01T05:52:51;-0.40;94.60
27368;DHT22;14839;48.106;11.618;2023-03-01T05:55:18;-0.40;94.60
27368;DHT22;14839;48.106;11.618;2023-03-01T05:57:45;-0.40;94.60
27368;DHT22;14839;48.106;11.618;2023-03-01T06:00:12;-0.50;94.60
27368;DHT22;14839;48.106;11.618;2023-03-01T06:02:38;-0.60;94.60
27368;DHT22;14839;48.106;11.618;2023-03-01T06:05:06;-0.60;94.60
27368;DHT22;14839;48.106;11.618;2023-03-01T06:07:32;-0.60;94.60
27368;DHT22;14839;48.106;11.618;2023-03-01T06:09:58;-0.50;94.60
27368;DHT22;14839;48.106;11.618;2023-03-01T06:12:23;-0.50;94.60
27368;DHT22;14839;48.106;11.618;2023-03-01T06:14:49;-0.50;94.60
27368;DHT22;14839;48.106;11.618;2023-03-01T06:17:14;-0.50;94.60
27368;DHT22;14839;48.106;11.618;2023-03-01T06:19:40;-0.50;94.60
27368;DHT22;14839;48.106;11.618;2023-03-01T06:22:06;-0.50;94.60
27368;DHT22;14839;48.106;11.618;2023-03-01T06:24:32;-0.50;94.60
27368;DHT22;14839;48.106;11.618;2023-03-01T06:26:58;-0.60;94.60
27368;DHT22;14839;48.106;11.618;2023-03-01T06:29:24;-0.50;94.60
27368;DHT22;14839;48.106;11.618;2023-03-01T06:31:49;-0.40;94.60
27368;DHT22;14839;48.106;11.618;2023-03-01T06:34:15;-0.40;94.60
27368;DHT22;14839;48.106;11.618;2023-03-01T06:36:40;-0.30;94.60
27368;DHT22;14839;48.106;11.618;2023-03-01T06:39:06;-0.40;94.60
27368;DHT22;14839;48.106;11.618;2023-03-01T06:41:32;-0.30;94.60
27368;DHT22;14839;48.106;11.618;2023-03-01T06:43:59;-0.30;94.60
27368;DHT22;14839;48.106;11.618;2023-03-01T06:46:25;-0.20;94.60
27368;DHT22;14839;48.106;11.618;2023-03-01T06:48:50;-0.20;94.60
27368;DHT22;14839;48.106;11.618;2023-03-01T06:51:16;-0.20;94.60
27368;DHT22;14839;48.106;11.618;2023-03-01T06:53:41;-0.20;94.60
27368;DHT22;14839;48.106;11.618;2023-03-01T06:56:07;-0.20;94.60
27368;DHT22;14839;48.106;11.618;2023-03-01T06:58:33;-0.20;94.60
27368;DHT22;14839;48.106;11.618;2023-03-01T07:00:58;-0.20;94.60
27368;DHT22;14839;48.106;11.618;2023-03-01T07:03:24;-0.10;94.60
27368;DHT22;14839;48.106;11.618;2023-03-01T07:05:50;-0.20;94.60
27368;DHT22;14839;48.106;11.618;2023-03-01T07:08:19;-0.20;94.60
27368;DHT22;14839;48.106;11.618;2023-03-01T07:10:44;-0.30;94.60
27368;DHT22;14839;48.106;11.618;2023-03-01T07:13:10;-0.30;94.60
27368;DHT22;14839;48.106;11.618;2023-03-01T07:15:36;-0.30;94.60
27368;DHT22;14839;48.106;11.618;2023-03-01T07:18:02;-0.40;94.60
27368;DHT22;14839;48.106;11.618;2023-03-01T07:20:27;-0.40;94.60
27368;DHT22;14839;48.106;11.618;2023-03-01T07:22:54;-0.30;94.60
27368;DHT22;14839;48.106;11.618;2023-03-01T07:25:20;-0.30;94.60
27368;DHT22;14839;48.106;11.618;2023-03-01T07:27:50;-0.20;94.60
27368;DHT22;14839;48.106;11.618;2023-03-01T07:30:16;0.00;94.60
27368;DHT22;14839;48.106;11.618;2023-03-01T07:32:42;0.00;94.60
27368;DHT22;14839;48.106;11.618;2023-03-01T07:35:08;0.10;94.60
27368;DHT22;14839;48.106;11.618;2023-03-01T07:37:33;0.10;94.60
27368;DHT22;14839;48.106;11.618;2023-03-01T07:39:59;0.10;94.60
27368;DHT22;14839;48.106;11.618;2023-03-01T07:42:24;0.00;94.60
27368;DHT22;14839;48.106;11.618;2023-03-01T07:44:50;0.00;94.60
27368;DHT22;14839;48.106;11.618;2023-03-01T07:47:16;0.10;94.60
27368;DHT22;14839;48.106;11.618;2023-03-01T07:49:41;0.20;94.60
27368;DHT22;14839;48.106;11.618;2023-03-01T07:52:10;0.30;94.60
27368;DHT22;14839;48.106;11.618;2023-03-01T07:54:37;0.30;94.60
27368;DHT22;14839;48.106;11.618;2023-03-01T07:57:02;0.40;94.60
27368;DHT22;14839;48.106;11.618;2023-03-01T07:59:28;0.20;94.60
27368;DHT22;14839;48.106;11.618;2023-03-01T08:01:56;0.20;94.60
27368;DHT22;14839;48.106;11.618;2023-03-01T08:04:22;0.30;94.60
27368;DHT22;14839;48.106;11.618;2023-03-01T08:06:50;0.30;94.60
27368;DHT22;14839;48.106;11.618;2023-03-01T08:09:16;0.40;94.60
27368;DHT22;14839;48.106;11.618;2023-03-01T08:11:41;0.30;94.60
27368;DHT22;14839;48.106;11.618;2023-03-01T08:14:07;0.40;94.60
27368;DHT22;14839;48.106;11.618;2023-03-01T08:16:33;0.40;94.60
27368;DHT22;14839;48.106;11.618;2023-03-01T08:19:04;0.50;94.60
27368;DHT22;14839;48.106;11.618;2023-03-01T08:21:30;0.50;94.60
27368;DHT22;14839;48.106;11.618;2023-03-01T08:23:56;0.50;94.60
27368;DHT22;14839;48.106;11.618;2023-03-01T08:26:21;0.50;94.60
27368;DHT22;14839;48.106;11.618;2023-03-01T08:28:48;0.40;94.60
27368;DHT22;14839;48.106;11.618;2023-03-01T08:31:26;0.60;94.60
27368;DHT22;14839;48.106;11.618;2023-03-01T08:33:55;0.50;94.50
27368;DHT22;14839;48.106;11.618;2023-03-01T08:36:28;0.40;94.60
27368;DHT22;14839;48.106;11.618;2023-03-01T08:38:54;0.40;94.60
27368;DHT22;14839;48.106;11.618;2023-03-01T08:41:20;0.50;94.60
27368;DHT22;14839;48.106;11.618;2023-03-01T08:43:46;0.70;94.40
27368;DHT22;14839;48.106;11.618;2023-03-01T08:46:12;0.70;94.40
27368;DHT22;14839;48.106;11.618;2023-03-01T08:48:38;0.90;94.00
27368;DHT22;14839;48.106;11.618;2023-03-01T08:51:09;1.10;93.30
27368;DHT22;14839;48.106;11.618;2023-03-01T08:53:34;1.00;92.90
27368;DHT22;14839;48.106;11.618;2023-03-01T08:56:00;1.20;92.90
27368;DHT22;14839;48.106;11.618;2023-03-01T08:58:28;1.20;92.50
27368;DHT22;14839;48.106;11.618;2023-03-01T09:00:54;1.30;92.50
27368;DHT22;14839;48.106;11.618;2023-03-01T09:03:19;1.10;92.60
27368;DHT22;14839;48.106;11.618;2023-03-01T09:05:45;1.20;92.70
27368;DHT22;14839;48.106;11.618;2023-03-01T09:08:11;1.00;92.70
27368;DHT22;14839;48.106;11.618;2023-03-01T09:10:39;1.20;92.90
27368;DHT22;14839;48.106;11.618;2023-03-01T09:13:05;1.30;93.00
27368;DHT22;14839;48.106;11.618;2023-03-01T09:15:31;1.30;92.50
27368;DHT22;14839;48.106;11.618;2023-03-01T09:17:56;1.40;92.80
27368;DHT22;14839;48.106;11.618;2023-03-01T09:20:22;1.60;92.10
27368;DHT22;14839;48.106;11.618;2023-03-01T09:22:47;1.80;91.80
27368;DHT22;14839;48.106;11.618;2023-03-01T09:25:13;1.90;91.10
27368;DHT22;14839;48.106;11.618;2023-03-01T09:27:38;2.00;90.70
27368;DHT22;14839;48.106;11.618;2023-03-01T09:30:05;1.80;91.00
27368;DHT22;14839;48.106;11.618;2023-03-01T09:32:31;1.90;91.40
27368;DHT22;14839;48.106;11.618;2023-03-01T09:34:57;1.90;90.70
27368;DHT22;14839;48.106;11.618;2023-03-01T09:37:36;2.00;90.80
27368;DHT22;14839;48.106;11.618;2023-03-01T09:40:04;2.20;90.30
27368;DHT22;14839;48.106;11.618;2023-03-01T09:42:32;2.10;90.40
27368;DHT22;14839;48.106;11.618;2023-03-01T09:45:05;2.20;90.50
27368;DHT22;14839;48.106;11.618;2023-03-01T09:47:36;2.20;90.10
27368;DHT22;14839;48.106;11.618;2023-03-01T09:50:18;2.20;90.20
27368;DHT22;14839;48.106;11.618;2023-03-01T09:53:07;2.10;90.40
27368;DHT22;14839;48.106;11.618;2023-03-01T09:55:43;2.20;90.30
27368;DHT22;14839;48.106;11.618;2023-03-01T09:58:31;2.10;90.40
27368;DHT22;14839;48.106;11.618;2023-03-01T10:01:21;2.20;90.60
27368;DHT22;14839;48.106;11.618;2023-03-01T10:09:21;2.10;90.90
27368;DHT22;14839;48.106;11.618;2023-03-01T10:11:52;2.20;90.30
27368;DHT22;14839;48.106;11.618;2023-03-01T10:14:39;2.20;90.40
27368;DHT22;14839;48.106;11.618;2023-03-01T10:19:58;2.40;90.90
27368;DHT22;14839;48.106;11.618;2023-03-01T10:22:34;2.40;89.80
27368;DHT22;14839;48.106;11.618;2023-03-01T10:25:02;2.20;89.80
27368;DHT22;14839;48.106;11.618;2023-03-01T10:27:46;2.30;89.50
27368;DHT22;14839;48.106;11.618;2023-03-01T10:30:29;2.40;89.30
27368;DHT22;14839;48.106;11.618;2023-03-01T10:32:57;2.60;88.90
27368;DHT22;14839;48.106;11.618;2023-03-01T10:35:25;2.90;88.00
27368;DHT22;14839;48.106;11.618;2023-03-01T10:38:09;2.90;86.60
27368;DHT22;14839;48.106;11.618;2023-03-01T10:40:36;2.90;86.80
27368;DHT22;14839;48.106;11.618;2023-03-01T10:43:14;3.00;86.20
27368;DHT22;14839;48.106;11.618;2023-03-01T10:45:40;3.20;86.00
27368;DHT22;14839;48.106;11.618;2023-03-01T10:50:48;3.70;86.90
27368;DHT22;14839;48.106;11.618;2023-03-01T10:53:40;3.80;83.90
27368;DHT22;14839;48.106;11.618;2023-03-01T10:56:09;3.80;84.10
27368;DHT22;14839;48.106;11.618;2023-03-01T10:58:40;4.10;84.20
27368;DHT22;14839;48.106;11.618;2023-03-01T11:03:40;3.80;83.80
27368;DHT22;14839;48.106;11.618;2023-03-01T11:06:21;3.50;84.20
27368;DHT22;14839;48.106;11.618;2023-03-01T11:08:50;3.50;85.10
27368;DHT22;14839;48.106;11.618;2023-03-01T11:16:28;5.00;82.60
27368;DHT22;14839;48.106;11.618;2023-03-01T11:22:12;5.00;78.70
27368;DHT22;14839;48.106;11.618;2023-03-01T11:24:42;5.10;79.30
27368;DHT22;14839;48.106;11.618;2023-03-01T11:27:17;4.70;79.30
27368;DHT22;14839;48.106;11.618;2023-03-01T11:30:02;4.50;80.20
27368;DHT22;14839;48.106;11.618;2023-03-01T11:32:39;4.40;79.90
27368;DHT22;14839;48.106;11.618;2023-03-01T11:35:15;4.50;82.70
27368;DHT22;14839;48.106;11.618;2023-03-01T11:40:40;4.40;81.40
27368;DHT22;14839;48.106;11.618;2023-03-01T11:46:29;4.90;81.40
27368;DHT22;14839;48.106;11.618;2023-03-01T11:52:32;4.70;80.90
27368;DHT22;14839;48.106;11.618;2023-03-01T11:55:17;5.00;81.40
27368;DHT22;14839;48.106;11.618;2023-03-01T12:09:31;5.00;80.80
27368;DHT22;14839;48.106;11.618;2023-03-01T12:15:00;5.40;79.90
27368;DHT22;14839;48.106;11.618;2023-03-01T12:17:46;5.20;79.60
27368;DHT22;14839;48.106;11.618;2023-03-01T12:23:12;5.10;80.60
27368;DHT22;14839;48.106;11.618;2023-03-01T12:28:32;5.20;80.30
27368;DHT22;14839;48.106;11.618;2023-03-01T12:31:42;4.80;80.60
27368;DHT22;14839;48.106;11.618;2023-03-01T12:40:13;4.80;82.30
27368;DHT22;14839;48.106;11.618;2023-03-01T12:50:53;4.90;82.60
27368;DHT22;14839;48.106;11.618;2023-03-01T12:53:24;4.90;82.30
27368;DHT22;14839;48.106;11.618;2023-03-01T12:55:52;4.90;83.00
27368;DHT22;14839;48.106;11.618;2023-03-01T13:04:53;4.90;82.10
27368;DHT22;14839;48.106;11.618;2023-03-01T13:09:49;4.70;83.20
27368;DHT22;14839;48.106;11.618;2023-03-01T13:12:42;4.90;83.00
27368;DHT22;14839;48.106;11.618;2023-03-01T13:15:26;4.90;83.00
27368;DHT22;14839;48.106;11.618;2023-03-01T13:17:54;5.00;83.00
27368;DHT22;14839;48.106;11.618;2023-03-01T13:20:23;5.20;82.70
27368;DHT22;14839;48.106;11.618;2023-03-01T13:23:06;5.40;82.40
27368;DHT22;14839;48.106;11.618;2023-03-01T13:25:32;5.30;82.10
27368;DHT22;14839;48.106;11.618;2023-03-01T13:31:06;5.30;82.10
27368;DHT22;14839;48.106;11.618;2023-03-01T13:36:00;5.40;82.30
27368;DHT22;14839;48.106;11.618;2023-03-01T13:38:48;5.50;81.80
27368;DHT22;14839;48.106;11.618;2023-03-01T13:46:53;5.70;81.80
27368;DHT22;14839;48.106;11.618;2023-03-01T13:49:25;5.80;80.90
27368;DHT22;14839;48.106;11.618;2023-03-01T13:51:52;5.70;80.90
27368;DHT22;14839;48.106;11.618;2023-03-01T13:54:30;5.70;81.80
27368;DHT22;14839;48.106;11.618;2023-03-01T13:56:58;5.90;81.70
27368;DHT22;14839;48.106;11.618;2023-03-01T13:59:24;6.00;80.90
27368;DHT22;14839;48.106;11.618;2023-03-01T14:01:59;6.00;79.90
27368;DHT22;14839;48.106;11.618;2023-03-01T14:04:31;5.90;79.90
27368;DHT22;14839;48.106;11.618;2023-03-01T14:09:47;6.00;80.20
27368;DHT22;14839;48.106;11.618;2023-03-01T14:12:52;6.00;80.30
27368;DHT22;14839;48.106;11.618;2023-03-01T14:20:40;6.00;81.20
27368;DHT22;14839;48.106;11.618;2023-03-01T14:23:15;6.10;80.50
27368;DHT22;14839;48.106;11.618;2023-03-01T14:25:50;6.10;80.50
27368;DHT22;14839;48.106;11.618;2023-03-01T14:28:28;6.00;80.90
27368;DHT22;14839;48.106;11.618;2023-03-01T14:30:59;5.90;81.20
27368;DHT22;14839;48.106;11.618;2023-03-01T14:33:28;5.90;81.70
27368;DHT22;14839;48.106;11.618;2023-03-01T14:38:30;6.10;82.40
27368;DHT22;14839;48.106;11.618;2023-03-01T14:41:02;6.10;81.80
27368;DHT22;14839;48.106;11.618;2023-03-01T14:43:29;6.20;81.50
27368;DHT22;14839;48.106;11.618;2023-03-01T14:45:56;6.20;81.20
27368;DHT22;14839;48.106;11.618;2023-03-01T14:48:23;6.20;80.90
27368;DHT22;14839;48.106;11.618;2023-03-01T14:50:49;6.20;81.10
27368;DHT22;14839;48.106;11.618;2023-03-01T14:53:25;6.10;81.10
27368;DHT22;14839;48.106;11.618;2023-03-01T14:55:54;6.10;81.50
27368;DHT22;14839;48.106;11.618;2023-03-01T14:58:24;6.10;82.10
27368;DHT22;14839;48.106;11.618;2023-03-01T15:00:55;6.20;82.10
27368;DHT22;14839;48.106;11.618;2023-03-01T15:03:42;6.10;81.70
27368;DHT22;14839;48.106;11.618;2023-03-01T15:06:10;6.10;82.10
27368;DHT22;14839;48.106;11.618;2023-03-01T15:08:41;6.00;82.30
27368;DHT22;14839;48.106;11.618;2023-03-01T15:13:40;6.10;82.60
27368;DHT22;14839;48.106;11.618;2023-03-01T15:16:11;6.20;82.30
27368;DHT22;14839;48.106;11.618;2023-03-01T15:18:46;6.20;82.60
27368;DHT22;14839;48.106;11.618;2023-03-01T15:23:53;6.30;82.30
27368;DHT22;14839;48.106;11.618;2023-03-01T15:26:39;6.40;82.40
27368;DHT22;14839;48.106;11.618;2023-03-01T15:29:18;6.40;82.60
27368;DHT22;14839;48.106;11.618;2023-03-01T15:34:26;6.30;82.30
27368;DHT22;14839;48.106;11.618;2023-03-01T15:36:53;6.30;82.90
27368;DHT22;14839;48.106;11.618;2023-03-01T15:41:58;6.30;83.30
27368;DHT22;14839;48.106;11.618;2023-03-01T15:44:30;6.10;83.20
27368;DHT22;14839;48.106;11.618;2023-03-01T15:46:57;6.10;83.30
27368;DHT22;14839;48.106;11.618;2023-03-01T15:52:03;6.10;83.80
27368;DHT22;14839;48.106;11.618;2023-03-01T15:54:30;6.00;83.90
27368;DHT22;14839;48.106;11.618;2023-03-01T15:56:56;6.00;84.10
27368;DHT22;14839;48.106;11.618;2023-03-01T15:59:22;6.10;84.10
27368;DHT22;14839;48.106;11.618;2023-03-01T16:01:51;6.10;84.50
27368;DHT22;14839;48.106;11.618;2023-03-01T16:04:18;6.10;84.50
27368;DHT22;14839;48.106;11.618;2023-03-01T16:06:52;6.10;84.50
27368;DHT22;14839;48.106;11.618;2023-03-01T16:09:22;6.10;84.70
27368;DHT22;14839;48.106;11.618;2023-03-01T16:11:48;6.00;84.80
27368;DHT22;14839;48.106;11.618;2023-03-01T16:14:14;6.00;85.30
27368;DHT22;14839;48.106;11.618;2023-03-01T16:16:40;5.90;85.60
27368;DHT22;14839;48.106;11.618;2023-03-01T16:19:05;5.90;85.70
27368;DHT22;14839;48.106;11.618;2023-03-01T16:21:31;5.90;85.90
27368;DHT22;14839;48.106;11.618;2023-03-01T16:23:56;5.80;86.20
27368;DHT22;14839;48.106;11.618;2023-03-01T16:26:22;5.80;86.50
27368;DHT22;14839;48.106;11.618;2023-03-01T16:28:48;5.80;86.60
27368;DHT22;14839;48.106;11.618;2023-03-01T16:31:17;5.70;86.90
27368;DHT22;14839;48.106;11.618;2023-03-01T16:33:43;5.70;87.10
27368;DHT22;14839;48.106;11.618;2023-03-01T16:36:15;5.60;87.70
27368;DHT22;14839;48.106;11.618;2023-03-01T16:38:40;5.50;88.30
27368;DHT22;14839;48.106;11.618;2023-03-01T16:41:12;5.40;88.40
27368;DHT22;14839;48.106;11.618;2023-03-01T16:43:37;5.40;88.60
27368;DHT22;14839;48.106;11.618;2023-03-01T16:46:11;5.40;88.90
27368;DHT22;14839;48.106;11.618;2023-03-01T16:48:37;5.30;89.20
27368;DHT22;14839;48.106;11.618;2023-03-01T16:51:03;5.20;89.50
27368;DHT22;14839;48.106;11.618;2023-03-01T16:53:29;5.10;90.20
27368;DHT22;14839;48.106;11.618;2023-03-01T16:55:56;5.00;90.70
27368;DHT22;14839;48.106;11.618;2023-03-01T16:58:22;4.80;91.20
27368;DHT22;14839;48.106;11.618;2023-03-01T17:00:53;4.60;91.70
27368;DHT22;14839;48.106;11.618;2023-03-01T17:03:20;4.40;92.10
27368;DHT22;14839;48.106;11.618;2023-03-01T17:05:45;4.20;93.00
27368;DHT22;14839;48.106;11.618;2023-03-01T17:08:11;3.90;93.80
27368;DHT22;14839;48.106;11.618;2023-03-01T17:10:36;3.80;94.20
27368;DHT22;14839;48.106;11.618;2023-03-01T17:13:02;3.70;94.60
27368;DHT22;14839;48.106;11.618;2023-03-01T17:15:28;3.60;94.60
27368;DHT22;14839;48.106;11.618;2023-03-01T17:17:54;3.50;94.60
27368;DHT22;14839;48.106;11.618;2023-03-01T17:20:20;3.30;94.60
27368;DHT22;14839;48.106;11.618;2023-03-01T17:22:45;3.20;94.60
27368;DHT22;14839;48.106;11.618;2023-03-01T17:25:11;3.10;94.60
27368;DHT22;14839;48.106;11.618;2023-03-01T17:27:38;3.00;94.60
27368;DHT22;14839;48.106;11.618;2023-03-01T17:30:05;2.90;94.60
27368;DHT22;14839;48.106;11.618;2023-03-01T17:32:32;2.90;94.60
27368;DHT22;14839;48.106;11.618;2023-03-01T17:34:57;2.70;94.60
27368;DHT22;14839;48.106;11.618;2023-03-01T17:37:23;2.60;94.60
27368;DHT22;14839;48.106;11.618;2023-03-01T17:39:49;2.50;94.60
27368;DHT22;14839;48.106;11.618;2023-03-01T17:42:14;2.50;94.60
27368;DHT22;14839;48.106;11.618;2023-03-01T17:44:40;2.40;94.60
27368;DHT22;14839;48.106;11.618;2023-03-01T17:47:06;2.40;94.60
27368;DHT22;14839;48.106;11.618;2023-03-01T17:49:31;2.30;94.60
27368;DHT22;14839;48.106;11.618;2023-03-01T17:51:57;2.20;94.60
27368;DHT22;14839;48.106;11.618;2023-03-01T17:54:32;2.10;94.60
27368;DHT22;14839;48.106;11.618;2023-03-01T17:56:58;2.10;94.60
27368;DHT22;14839;48.106;11.618;2023-03-01T17:59:24;2.00;94.60
27368;DHT22;14839;48.106;11.618;2023-03-01T18:01:56;2.00;94.60
27368;DHT22;14839;48.106;11.618;2023-03-01T18:04:21;1.90;94.60
27368;DHT22;14839;48.106;11.618;2023-03-01T18:06:47;1.90;94.60
27368;DHT22;14839;48.106;11.618;2023-03-01T18:09:13;1.90;94.60
27368;DHT22;14839;48.106;11.618;2023-03-01T18:11:39;1.80;94.60
27368;DHT22;14839;48.106;11.618;2023-03-01T18:14:07;1.70;94.60
27368;DHT22;14839;48.106;11.618;2023-03-01T18:16:33;1.70;94.60
27368;DHT22;14839;48.106;11.618;2023-03-01T18:19:00;1.60;94.60
27368;DHT22;14839;48.106;11.618;2023-03-01T18:21:27;1.60;94.60
27368;DHT22;14839;48.106;11.618;2023-03-01T18:23:54;1.50;94.60
27368;DHT22;14839;48.106;11.618;2023-03-01T18:26:19;1.50;94.60
27368;DHT22;14839;48.106;11.618;2023-03-01T18:28:48;1.40;94.60
27368;DHT22;14839;48.106;11.618;2023-03-01T18:31:16;1.40;94.60
27368;DHT22;14839;48.106;11.618;2023-03-01T18:33:43;1.30;94.60
27368;DHT22;14839;48.106;11.618;2023-03-01T18:36:24;1.30;94.60
27368;DHT22;14839;48.106;11.618;2023-03-01T18:38:50;1.20;94.60
27368;DHT22;14839;48.106;11.618;2023-03-01T18:41:18;1.10;94.60
27368;DHT22;14839;48.106;11.618;2023-03-01T18:43:43;1.00;94.60
27368;DHT22;14839;48.106;11.618;2023-03-01T18:46:09;0.90;94.60
27368;DHT22;14839;48.106;11.618;2023-03-01T18:48:34;0.90;94.60
27368;DHT22;14839;48.106;11.618;2023-03-01T18:51:17;0.90;94.60
27368;DHT22;14839;48.106;11.618;2023-03-01T18:53:43;0.80;94.60
27368;DHT22;14839;48.106;11.618;2023-03-01T18:56:09;0.80;94.60
27368;DHT22;14839;48.106;11.618;2023-03-01T18:58:35;0.80;94.60
27368;DHT22;14839;48.106;11.618;2023-03-01T19:01:01;0.80;94.60
27368;DHT22;14839;48.106;11.618;2023-03-01T19:03:32;0.70;94.60
27368;DHT22;14839;48.106;11.618;2023-03-01T19:05:58;0.70;94.60
27368;DHT22;14839;48.106;11.618;2023-03-01T19:08:27;0.70;94.60
27368;DHT22;14839;48.106;11.618;2023-03-01T19:10:58;0.70;94.60
27368;DHT22;14839;48.106;11.618;2023-03-01T19:13:24;0.60;94.60
27368;DHT22;14839;48.106;11.618;2023-03-01T19:15:50;0.70;94.60
27368;DHT22;14839;48.106;11.618;2023-03-01T19:18:17;0.70;94.60
27368;DHT22;14839;48.106;11.618;2023-03-01T19:20:42;0.60;94.60
27368;DHT22;14839;48.106;11.618;2023-03-01T19:23:08;0.60;94.60
27368;DHT22;14839;48.106;11.618;2023-03-01T19:25:34;0.50;94.60
27368;DHT22;14839;48.106;11.618;2023-03-01T19:27:59;0.50;94.60
27368;DHT22;14839;48.106;11.618;2023-03-01T19:30:25;0.50;94.60
27368;DHT22;14839;48.106;11.618;2023-03-01T19:32:52;0.50;94.60
27368;DHT22;14839;48.106;11.618;2023-03-01T19:35:18;0.40;94.60
27368;DHT22;14839;48.106;11.618;2023-03-01T19:37:46;0.40;94.60
27368;DHT22;14839;48.106;11.618;2023-03-01T19:40:12;0.30;94.60
27368;DHT22;14839;48.106;11.618;2023-03-01T19:42:37;0.40;94.60
27368;DHT22;14839;48.106;11.618;2023-03-01T19:45:03;0.30;94.60
27368;DHT22;14839;48.106;11.618;2023-03-01T19:47:29;0.30;94.60
27368;DHT22;14839;48.106;11.618;2023-03-01T19:49:54;0.20;94.60
27368;DHT22;14839;48.106;11.618;2023-03-01T19:52:20;0.20;94.60
27368;DHT22;14839;48.106;11.618;2023-03-01T19:54:46;0.20;94.60
27368;DHT22;14839;48.106;11.618;2023-03-01T19:57:11;0.30;94.60
27368;DHT22;14839;48.106;11.618;2023-03-01T19:59:37;0.30;94.60
27368;DHT22;14839;48.106;11.618;2023-03-01T20:02:03;0.40;94.60
27368;DHT22;14839;48.106;11.618;2023-03-01T20:04:28;0.30;94.60
27368;DHT22;14839;48.106;11.618;2023-03-01T20:06:54;0.30;94.60
27368;DHT22;14839;48.106;11.618;2023-03-01T20:09:19;0.30;94.60
27368;DHT22;14839;48.106;11.618;2023-03-01T20:11:45;0.30;94.60
27368;DHT22;14839;48.106;11.618;2023-03-01T20:14:10;0.20;94.60
27368;DHT22;14839;48.106;11.618;2023-03-01T20:16:37;0.20;94.60
27368;DHT22;14839;48.106;11.618;2023-03-01T20:19:03;0.10;94.60
27368;DHT22;14839;48.106;11.618;2023-03-01T20:21:28;0.10;94.60
27368;DHT22;14839;48.106;11.618;2023-03-01T20:23:54;0.00;94.60
27368;DHT22;14839;48.106;11.618;2023-03-01T20:26:21;0.00;94.60
27368;DHT22;14839;48.106;11.618;2023-03-01T20:28:49;-0.10;94.60
27368;DHT22;14839;48.106;11.618;2023-03-01T20:31:17;-0.10;94.60
27368;DHT22;14839;48.106;11.618;2023-03-01T20:33:43;-0.20;94.60
27368;DHT22;14839;48.106;11.618;2023-03-01T20:36:09;-0.20;94.60
27368;DHT22;14839;48.106;11.618;2023-03-01T20:38:35;-0.30;94.60
27368;DHT22;14839;48.106;11.618;2023-03-01T20:41:07;-0.20;94.60
27368;DHT22;14839;48.106;11.618;2023-03-01T20:43:34;-0.20;94.60
27368;DHT22;14839;48.106;11.618;2023-03-01T20:46:11;-0.10;94.60
27368;DHT22;14839;48.106;11.618;2023-03-01T20:48:37;0.00;94.60
27368;DHT22;14839;48.106;11.618;2023-03-01T20:51:07;0.00;94.60
27368;DHT22;14839;48.106;11.618;2023-03-01T20:53:34;0.10;94.60
27368;DHT22;14839;48.106;11.618;2023-03-01T20:56:03;0.10;94.60
27368;DHT22;14839;48.106;11.618;2023-03-01T20:58:29;0.10;94.60
27368;DHT22;14839;48.106;11.618;2023-03-01T21:01:00;0.30;94.60
27368;DHT22;14839;48.106;11.618;2023-03-01T21:03:26;0.40;94.60
27368;DHT22;14839;48.106;11.618;2023-03-01T21:05:57;0.50;94.60
27368;DHT22;14839;48.106;11.618;2023-03-01T21:08:23;0.60;94.60
27368;DHT22;14839;48.106;11.618;2023-03-01T21:10:53;0.60;94.60
27368;DHT22;14839;48.106;11.618;2023-03-01T21:13:19;0.70;94.60
27368;DHT22;14839;48.106;11.618;2023-03-01T21:15:59;0.80;94.60
27368;DHT22;14839;48.106;11.618;2023-03-01T21:18:26;0.80;94.60
27368;DHT22;14839;48.106;11.618;2023-03-01T21:20:56;0.80;94.60
27368;DHT22;14839;48.106;11.618;2023-03-01T21:23:22;0.80;94.60
27368;DHT22;14839;48.106;11.618;2023-03-01T21:25:58;0.80;94.60
27368;DHT22;14839;48.106;11.618;2023-03-01T21:28:24;0.80;94.60
27368;DHT22;14839;48.106;11.618;2023-03-01T21:30:49;0.80;94.60
27368;DHT22;14839;48.106;11.618;2023-03-01T21:33:15;0.80;94.60
27368;DHT22;14839;48.106;11.618;2023-03-01T21:35:40;0.90;94.60
27368;DHT22;14839;48.106;11.618;2023-03-01T21:38:06;0.90;94.60
27368;DHT22;14839;48.106;11.618;2023-03-01T21:40:31;1.00;94.60
27368;DHT22;14839;48.106;11.618;2023-03-01T21:42:57;1.00;94.60
27368;DHT22;14839;48.106;11.618;2023-03-01T21:45:22;1.00;94.60
27368;DHT22;14839;48.106;11.618;2023-03-01T21:47:48;1.00;94.60
27368;DHT22;14839;48.106;11.618;2023-03-01T21:50:14;0.90;94.60
27368;DHT22;14839;48.106;11.618;2023-03-01T21:52:39;1.00;94.60
27368;DHT22;14839;48.106;11.618;2023-03-01T21:55:05;0.90;94.60
27368;DHT22;14839;48.106;11.618;2023-03-01T21:57:31;1.00;94.60
27368;DHT22;14839;48.106;11.618;2023-03-01T21:59:56;1.00;94.60
27368;DHT22;14839;48.106;11.618;2023-03-01T22:02:22;1.00;94.60
27368;DHT22;14839;48.106;11.618;2023-03-01T22:04:51;0.90;94.60
27368;DHT22;14839;48.106;11.618;2023-03-01T22:07:21;0.90;94.60
27368;DHT22;14839;48.106;11.618;2023-03-01T22:09:47;0.80;94.60
27368;DHT22;14839;48.106;11.618;2023-03-01T22:12:12;0.80;94.60
27368;DHT22;14839;48.106;11.618;2023-03-01T22:14:38;0.80;94.60
27368;DHT22;14839;48.106;11.618;2023-03-01T22:17:04;0.70;94.60
27368;DHT22;14839;48.106;11.618;2023-03-01T22:19:30;0.80;94.60
27368;DHT22;14839;48.106;11.618;2023-03-01T22:21:56;0.70;94.60
27368;DHT22;14839;48.106;11.618;2023-03-01T22:24:23;0.80;94.60
27368;DHT22;14839;48.106;11.618;2023-03-01T22:26:50;0.70;94.60